sensor_id;sensor_type;location;lat;lon;timestamp;temperature;humidity
7796;DHT22;3942;51.518;6.912;2023-05-08T00:06:45;15.80;1.00
7796;DHT22;3942;51.518;6.912;2023-05-08T00:11:48;16.00;1.00
7796;DHT22;3942;51.518;6.912;2023-05-08T00:16:50;15.90;13.90
7796;DHT22;3942;51.518;6.912;2023-05-08T00:26:55;15.70;13.90
7796;DHT22;3942;51.518;6.912;2023-05-08T00:42:03;15.60;56.60
7796;DHT22;3942;51.518;6.912;2023-05-08T00:47:06;15.60;99.90
7796;DHT22;3942;51.518;6.912;2023-05-08T01:17:49;15.30;99.90
7796;DHT22;3942;51.518;6.912;2023-05-08T01:23:37;15.30;99.90
7796;DHT22;3942;51.518;6.912;2023-05-08T01:28:59;15.20;99.90
7796;DHT22;3942;51.518;6.912;2023-05-08T01:34:10;15.20;99.90
7796;DHT22;3942;51.518;6.912;2023-05-08T01:39:17;15.20;99.90
7796;DHT22;3942;51.518;6.912;2023-05-08T01:44:23;15.20;99.90
7796;DHT22;3942;51.518;6.912;2023-05-08T01:49:29;15.20;99.90
7796;DHT22;3942;51.518;6.912;2023-05-08T01:59:41;14.90;99.90
7796;DHT22;3942;51.518;6.912;2023-05-08T02:04:47;15.00;99.90
7796;DHT22;3942;51.518;6.912;2023-05-08T02:09:50;15.10;99.90
7796;DHT22;3942;51.518;6.912;2023-05-08T02:14:53;15.00;99.90
7796;DHT22;3942;51.518;6.912;2023-05-08T02:35:07;14.80;99.90
7796;DHT22;3942;51.518;6.912;2023-05-08T03:00:31;14.60;99.90
7796;DHT22;3942;51.518;6.912;2023-05-08T03:10:40;14.50;99.90
7796;DHT22;3942;51.518;6.912;2023-05-08T03:15:45;14.50;99.90
7796;DHT22;3942;51.518;6.912;2023-05-08T03:20:54;14.50;99.90
7796;DHT22;3942;51.518;6.912;2023-05-08T03:25:57;14.20;99.90
7796;DHT22;3942;51.518;6.912;2023-05-08T03:46:09;14.50;99.90
7796;DHT22;3942;51.518;6.912;2023-05-08T03:51:14;14.30;99.90
7796;DHT22;3942;51.518;6.912;2023-05-08T04:16:38;14.50;99.90
7796;DHT22;3942;51.518;6.912;2023-05-08T04:31:47;14.80;99.90
7796;DHT22;3942;51.518;6.912;2023-05-08T04:47:01;14.80;99.90
7796;DHT22;3942;51.518;6.912;2023-05-08T05:12:15;14.90;99.90
7796;DHT22;3942;51.518;6.912;2023-05-08T05:22:20;15.20;99.90
7796;DHT22;3942;51.518;6.912;2023-05-08T05:32:24;14.70;99.90
7796;DHT22;3942;51.518;6.912;2023-05-08T06:48:06;18.30;99.90
7796;DHT22;3942;51.518;6.912;2023-05-08T07:53:42;18.50;99.90
7796;DHT22;3942;51.518;6.912;2023-05-08T08:18:55;19.70;1.00
7796;DHT22;3942;51.518;6.912;2023-05-08T08:39:06;19.90;58.30
7796;DHT22;3942;51.518;6.912;2023-05-08T08:44:08;19.90;99.90
7796;DHT22;3942;51.518;6.912;2023-05-08T08:49:12;21.80;1.00
7796;DHT22;3942;51.518;6.912;2023-05-08T08:54:23;21.70;99.90
7796;DHT22;3942;51.518;6.912;2023-05-08T09:09:33;21.80;1.00
7796;DHT22;3942;51.518;6.912;2023-05-08T09:14:37;21.80;1.00
7796;DHT22;3942;51.518;6.912;2023-05-08T09:19:39;20.80;1.00
7796;DHT22;3942;51.518;6.912;2023-05-08T09:24:55;21.20;70.00
7796;DHT22;3942;51.518;6.912;2023-05-08T09:30:01;20.70;99.90
7796;DHT22;3942;51.518;6.912;2023-05-08T09:35:05;20.90;99.90
7796;DHT22;3942;51.518;6.912;2023-05-08T09:40:18;19.90;37.30
7796;DHT22;3942;51.518;6.912;2023-05-08T09:45:27;19.70;1.00
7796;DHT22;3942;51.518;6.912;2023-05-08T09:50:30;19.80;99.90
7796;DHT22;3942;51.518;6.912;2023-05-08T09:55:46;19.80;1.00
7796;DHT22;3942;51.518;6.912;2023-05-08T10:11:12;18.90;99.90
7796;DHT22;3942;51.518;6.912;2023-05-08T10:16:17;18.70;1.00
7796;DHT22;3942;51.518;6.912;2023-05-08T10:26:26;19.20;99.90
7796;DHT22;3942;51.518;6.912;2023-05-08T10:31:28;19.00;99.90
7796;DHT22;3942;51.518;6.912;2023-05-08T10:36:31;18.90;99.90
7796;DHT22;3942;51.518;6.912;2023-05-08T10:41:37;18.80;1.00
7796;DHT22;3942;51.518;6.912;2023-05-08T10:46:43;19.50;12.70
7796;DHT22;3942;51.518;6.912;2023-05-08T10:51:55;19.40;1.00
7796;DHT22;3942;51.518;6.912;2023-05-08T10:57:09;19.10;23.60
7796;DHT22;3942;51.518;6.912;2023-05-08T11:02:12;19.20;99.90
7796;DHT22;3942;51.518;6.912;2023-05-08T11:12:21;18.90;99.90
7796;DHT22;3942;51.518;6.912;2023-05-08T11:17:24;18.80;1.00
7796;DHT22;3942;51.518;6.912;2023-05-08T11:22:28;19.60;1.00
7796;DHT22;3942;51.518;6.912;2023-05-08T11:27:40;19.50;99.90
7796;DHT22;3942;51.518;6.912;2023-05-08T11:33:22;19.40;99.90
7796;DHT22;3942;51.518;6.912;2023-05-08T11:38:31;19.40;99.90
7796;DHT22;3942;51.518;6.912;2023-05-08T11:49:12;20.70;99.90
7796;DHT22;3942;51.518;6.912;2023-05-08T11:54:17;20.30;99.90
7796;DHT22;3942;51.518;6.912;2023-05-08T11:59:21;21.00;99.90
7796;DHT22;3942;51.518;6.912;2023-05-08T12:14:29;20.10;25.40
7796;DHT22;3942;51.518;6.912;2023-05-08T12:19:30;20.50;99.90
7796;DHT22;3942;51.518;6.912;2023-05-08T12:24:32;20.10;99.90
7796;DHT22;3942;51.518;6.912;2023-05-08T12:29:36;20.60;1.00
7796;DHT22;3942;51.518;6.912;2023-05-08T12:34:38;20.40;1.00
7796;DHT22;3942;51.518;6.912;2023-05-08T12:39:43;19.50;88.00
7796;DHT22;3942;51.518;6.912;2023-05-08T12:44:50;20.10;48.70
7796;DHT22;3942;51.518;6.912;2023-05-08T12:49:56;19.90;1.00
7796;DHT22;3942;51.518;6.912;2023-05-08T12:54:58;20.30;1.00
7796;DHT22;3942;51.518;6.912;2023-05-08T13:00:04;20.60;1.00
7796;DHT22;3942;51.518;6.912;2023-05-08T13:05:06;20.00;1.00
7796;DHT22;3942;51.518;6.912;2023-05-08T13:10:08;20.00;99.90
7796;DHT22;3942;51.518;6.912;2023-05-08T13:15:12;20.00;99.90
7796;DHT22;3942;51.518;6.912;2023-05-08T13:20:14;20.20;99.90
7796;DHT22;3942;51.518;6.912;2023-05-08T13:30:19;20.30;99.90
7796;DHT22;3942;51.518;6.912;2023-05-08T13:35:22;20.30;99.90
7796;DHT22;3942;51.518;6.912;2023-05-08T13:40:25;20.30;99.90
7796;DHT22;3942;51.518;6.912;2023-05-08T13:45:28;20.30;82.30
7796;DHT22;3942;51.518;6.912;2023-05-08T13:50:30;20.80;1.00
7796;DHT22;3942;51.518;6.912;2023-05-08T13:55:32;20.90;1.00
7796;DHT22;3942;51.518;6.912;2023-05-08T14:15:43;21.00;99.90
7796;DHT22;3942;51.518;6.912;2023-05-08T14:20:45;21.10;99.90
7796;DHT22;3942;51.518;6.912;2023-05-08T14:25:47;20.80;88.10
7796;DHT22;3942;51.518;6.912;2023-05-08T14:30:50;20.80;40.80
7796;DHT22;3942;51.518;6.912;2023-05-08T14:45:58;20.80;72.20
7796;DHT22;3942;51.518;6.912;2023-05-08T14:50:59;21.20;28.60
7796;DHT22;3942;51.518;6.912;2023-05-08T14:56:01;20.90;1.00
7796;DHT22;3942;51.518;6.912;2023-05-08T15:01:05;20.90;1.00
7796;DHT22;3942;51.518;6.912;2023-05-08T15:06:06;20.90;1.00
7796;DHT22;3942;51.518;6.912;2023-05-08T15:11:08;21.00;1.00
7796;DHT22;3942;51.518;6.912;2023-05-08T15:16:11;20.70;1.00
7796;DHT22;3942;51.518;6.912;2023-05-08T15:21:13;20.80;9.10
7796;DHT22;3942;51.518;6.912;2023-05-08T15:31:19;20.70;1.00
7796;DHT22;3942;51.518;6.912;2023-05-08T15:36:20;20.60;1.00
7796;DHT22;3942;51.518;6.912;2023-05-08T15:41:22;20.50;99.90
7796;DHT22;3942;51.518;6.912;2023-05-08T15:46:25;20.40;99.90
7796;DHT22;3942;51.518;6.912;2023-05-08T15:51:27;20.40;99.90
7796;DHT22;3942;51.518;6.912;2023-05-08T15:56:29;20.30;99.90
7796;DHT22;3942;51.518;6.912;2023-05-08T16:01:32;20.20;99.90
7796;DHT22;3942;51.518;6.912;2023-05-08T16:06:34;20.10;1.00
7796;DHT22;3942;51.518;6.912;2023-05-08T16:26:47;20.00;1.00
7796;DHT22;3942;51.518;6.912;2023-05-08T16:46:57;19.60;99.90
7796;DHT22;3942;51.518;6.912;2023-05-08T17:02:06;19.40;1.00
7796;DHT22;3942;51.518;6.912;2023-05-08T17:12:10;19.80;1.00
7796;DHT22;3942;51.518;6.912;2023-05-08T17:22:15;19.40;1.00
7796;DHT22;3942;51.518;6.912;2023-05-08T17:27:19;19.30;99.90
7796;DHT22;3942;51.518;6.912;2023-05-08T17:32:22;19.40;99.90
7796;DHT22;3942;51.518;6.912;2023-05-08T17:37:24;19.20;1.00
7796;DHT22;3942;51.518;6.912;2023-05-08T17:42:27;19.10;1.00
7796;DHT22;3942;51.518;6.912;2023-05-08T17:47:38;19.20;99.90
7796;DHT22;3942;51.518;6.912;2023-05-08T17:52:40;19.30;99.90
7796;DHT22;3942;51.518;6.912;2023-05-08T17:57:42;19.10;1.00
7796;DHT22;3942;51.518;6.912;2023-05-08T18:02:45;18.80;1.00
7796;DHT22;3942;51.518;6.912;2023-05-08T18:07:47;19.00;1.00
7796;DHT22;3942;51.518;6.912;2023-05-08T18:12:49;19.10;59.30
7796;DHT22;3942;51.518;6.912;2023-05-08T18:17:52;18.90;1.00
7796;DHT22;3942;51.518;6.912;2023-05-08T18:22:54;18.90;34.30
7796;DHT22;3942;51.518;6.912;2023-05-08T18:27:55;18.80;99.90
7796;DHT22;3942;51.518;6.912;2023-05-08T18:32:59;18.90;1.00
7796;DHT22;3942;51.518;6.912;2023-05-08T18:38:01;18.70;1.00
7796;DHT22;3942;51.518;6.912;2023-05-08T18:43:03;18.60;1.00
7796;DHT22;3942;51.518;6.912;2023-05-08T18:48:07;18.60;92.10
7796;DHT22;3942;51.518;6.912;2023-05-08T18:53:09;18.60;99.90
7796;DHT22;3942;51.518;6.912;2023-05-08T18:58:13;18.60;1.00
7796;DHT22;3942;51.518;6.912;2023-05-08T19:03:17;18.60;1.00
7796;DHT22;3942;51.518;6.912;2023-05-08T19:08:19;18.60;99.90
7796;DHT22;3942;51.518;6.912;2023-05-08T19:13:21;18.60;99.90
7796;DHT22;3942;51.518;6.912;2023-05-08T19:18:24;18.60;99.90
7796;DHT22;3942;51.518;6.912;2023-05-08T19:23:26;20.60;1.00
7796;DHT22;3942;51.518;6.912;2023-05-08T19:28:28;18.30;25.00
7796;DHT22;3942;51.518;6.912;2023-05-08T19:33:31;18.40;99.90
7796;DHT22;3942;51.518;6.912;2023-05-08T19:38:33;18.30;99.90
7796;DHT22;3942;51.518;6.912;2023-05-08T19:43:36;18.20;99.90
7796;DHT22;3942;51.518;6.912;2023-05-08T19:48:39;18.10;99.90
7796;DHT22;3942;51.518;6.912;2023-05-08T19:53:41;18.00;99.90
7796;DHT22;3942;51.518;6.912;2023-05-08T19:58:43;18.00;99.90
7796;DHT22;3942;51.518;6.912;2023-05-08T20:03:46;17.90;99.90
7796;DHT22;3942;51.518;6.912;2023-05-08T20:08:48;17.90;99.90
7796;DHT22;3942;51.518;6.912;2023-05-08T20:13:50;17.90;99.90
7796;DHT22;3942;51.518;6.912;2023-05-08T20:18:53;17.80;1.00
7796;DHT22;3942;51.518;6.912;2023-05-08T20:23:55;17.90;99.90
7796;DHT22;3942;51.518;6.912;2023-05-08T20:34:00;17.50;99.90
7796;DHT22;3942;51.518;6.912;2023-05-08T20:39:03;17.60;99.90
7796;DHT22;3942;51.518;6.912;2023-05-08T20:54:10;17.60;1.00
7796;DHT22;3942;51.518;6.912;2023-05-08T20:59:12;17.40;1.00
7796;DHT22;3942;51.518;6.912;2023-05-08T21:04:17;17.60;1.00
7796;DHT22;3942;51.518;6.912;2023-05-08T21:14:21;17.30;1.00
7796;DHT22;3942;51.518;6.912;2023-05-08T21:19:24;17.20;90.40
7796;DHT22;3942;51.518;6.912;2023-05-08T21:24:26;17.10;99.90
7796;DHT22;3942;51.518;6.912;2023-05-08T21:34:31;17.30;92.20
7796;DHT22;3942;51.518;6.912;2023-05-08T21:44:35;17.20;99.90
7796;DHT22;3942;51.518;6.912;2023-05-08T21:49:38;17.10;99.90
7796;DHT22;3942;51.518;6.912;2023-05-08T22:09:48;17.00;99.90
7796;DHT22;3942;51.518;6.912;2023-05-08T22:14:50;17.20;99.90
7796;DHT22;3942;51.518;6.912;2023-05-08T22:19:53;17.00;99.90
7796;DHT22;3942;51.518;6.912;2023-05-08T22:40:06;16.90;99.90
7796;DHT22;3942;51.518;6.912;2023-05-08T22:45:09;16.70;99.90
7796;DHT22;3942;51.518;6.912;2023-05-08T23:00:19;16.90;99.90
7796;DHT22;3942;51.518;6.912;2023-05-08T23:35:38;16.50;99.90
7796;DHT22;3942;51.518;6.912;2023-05-08T23:45:42;16.50;99.90
7796;DHT22;3942;51.518;6.912;2023-05-08T23:50:45;16.30;99.90
7796;DHT22;3942;51.518;6.912;2023-05-08T23:55:48;16.40;99.90
